createdAt,value
2019-04-13T00:01:35.941Z,7.07
2019-04-13T00:04:04.459Z,4.80
2019-04-13T00:06:35.400Z,7.27
2019-04-13T00:09:03.641Z,7.87
2019-04-13T00:11:34.693Z,6.20
2019-04-13T00:14:03.878Z,5.47
2019-04-13T00:16:31.375Z,5.47
2019-04-13T00:18:59.736Z,5.50
2019-04-13T00:21:28.113Z,6.73
2019-04-13T00:23:55.595Z,7.20
2019-04-13T00:26:23.865Z,5.60
2019-04-13T00:28:52.136Z,6.70
2019-04-13T00:31:19.670Z,6.47
2019-04-13T00:33:47.162Z,7.30
2019-04-13T00:36:14.638Z,5.53
2019-04-13T00:38:42.901Z,6.00
2019-04-13T00:41:10.386Z,5.90
2019-04-13T00:43:38.630Z,6.73
2019-04-13T00:46:06.200Z,5.77
2019-04-13T00:48:33.678Z,7.37
2019-04-13T00:51:01.146Z,6.07
2019-04-13T00:53:29.454Z,5.60
2019-04-13T00:55:56.953Z,6.13
2019-04-13T00:58:24.445Z,7.43
2019-04-13T01:00:51.928Z,5.47
2019-04-13T01:03:20.167Z,6.60
2019-04-13T01:05:47.737Z,6.13
2019-04-13T01:08:15.307Z,6.73
2019-04-13T01:10:42.781Z,6.97
2019-04-13T01:13:10.436Z,6.43
2019-04-13T01:15:37.937Z,8.10
2019-04-13T01:18:05.406Z,5.80
2019-04-13T01:20:32.882Z,5.40
2019-04-13T01:23:00.372Z,6.07
2019-04-13T01:25:27.940Z,5.80
2019-04-13T01:27:55.510Z,6.17
2019-04-13T01:30:23.001Z,6.83
2019-04-13T01:32:51.293Z,7.23
2019-04-13T01:35:18.809Z,6.62
2019-04-13T01:37:46.366Z,7.33
2019-04-13T01:40:13.933Z,6.50
2019-04-13T01:42:42.284Z,5.30
2019-04-13T01:45:09.932Z,8.13
2019-04-13T01:47:37.419Z,6.03
2019-04-13T01:50:04.912Z,6.83
2019-04-13T01:52:32.391Z,7.77
2019-04-13T01:54:59.960Z,6.80
2019-04-13T01:57:28.194Z,7.27
2019-04-13T01:59:55.774Z,7.23
2019-04-13T02:02:38.150Z,6.20
2019-04-13T02:07:59.026Z,7.07
2019-04-13T02:10:42.162Z,5.90
2019-04-13T02:13:09.637Z,6.83
2019-04-13T02:15:37.113Z,7.87
2019-04-13T02:18:04.582Z,6.97
2019-04-13T02:20:32.223Z,7.17
2019-04-13T02:22:59.714Z,6.80
2019-04-13T02:25:27.199Z,7.77
2019-04-13T02:27:56.180Z,7.37
2019-04-13T02:30:23.750Z,7.83
2019-04-13T02:32:51.321Z,8.10
2019-04-13T02:35:33.984Z,7.90
2019-04-13T02:37:47.166Z,7.77
2019-04-13T02:40:14.660Z,7.70
2019-04-13T02:42:42.950Z,7.50
2019-04-13T02:45:10.421Z,8.10
2019-04-13T02:47:37.890Z,9.90
2019-04-13T02:50:05.365Z,8.97
2019-04-13T02:52:32.847Z,9.00
2019-04-13T02:55:00.411Z,7.00
2019-04-13T02:57:27.930Z,6.97
2019-04-13T02:59:56.309Z,6.93
2019-04-13T03:02:23.830Z,8.45
2019-04-13T03:04:51.298Z,8.60
2019-04-13T03:07:19.683Z,8.33
2019-04-13T03:09:47.934Z,8.30
2019-04-13T03:12:15.407Z,8.77
2019-04-13T03:14:43.925Z,8.20
2019-04-13T03:17:18.021Z,7.57
2019-04-13T03:20:01.185Z,8.17
2019-04-13T03:22:28.650Z,7.47
2019-04-13T03:24:56.128Z,8.57
2019-04-13T03:27:23.605Z,7.53
2019-04-13T03:29:51.165Z,8.30
2019-04-13T03:32:18.670Z,7.50
2019-04-13T03:34:46.404Z,7.83
2019-04-13T03:37:13.967Z,6.90
2019-04-13T03:39:41.432Z,7.97
2019-04-13T03:42:12.957Z,7.00
2019-04-13T03:44:40.421Z,8.93
2019-04-13T03:47:08.626Z,7.17
2019-04-13T03:49:36.340Z,8.03
2019-04-13T03:52:04.386Z,7.10
2019-04-13T03:54:32.037Z,9.70
2019-04-13T03:56:59.521Z,8.13
2019-04-13T03:59:28.202Z,8.47
2019-04-13T04:01:55.777Z,9.53
2019-04-13T04:04:24.013Z,9.13
2019-04-13T04:06:51.493Z,8.63
2019-04-13T04:09:19.265Z,9.30
2019-04-13T04:11:46.756Z,8.97
2019-04-13T04:14:15.025Z,8.47
2019-04-13T04:16:43.265Z,9.20
2019-04-13T04:19:10.748Z,9.77
2019-04-13T04:21:38.217Z,10.10
2019-04-13T04:24:05.780Z,9.07
2019-04-13T04:26:33.433Z,9.10
2019-04-13T04:29:00.952Z,9.67
2019-04-13T04:31:29.383Z,9.40
2019-04-13T04:33:56.871Z,11.30
2019-04-13T04:36:25.116Z,9.77
2019-04-13T04:38:52.794Z,9.37
2019-04-13T04:41:20.457Z,12.00
2019-04-13T04:43:47.938Z,9.73
2019-04-13T04:46:16.190Z,9.57
2019-04-13T04:48:43.650Z,9.63
2019-04-13T04:51:11.731Z,9.83
2019-04-13T04:53:39.837Z,9.37
2019-04-13T04:56:08.078Z,11.27
2019-04-13T04:58:35.568Z,12.80
2019-04-13T05:01:04.926Z,9.17
2019-04-13T05:03:32.622Z,8.37
2019-04-13T05:06:00.129Z,11.00
2019-04-13T05:08:28.566Z,8.27
2019-04-13T05:10:56.137Z,8.27
2019-04-13T05:13:23.696Z,8.40
2019-04-13T05:15:51.197Z,10.83
2019-04-13T05:18:19.446Z,11.27
2019-04-13T05:20:47.307Z,8.73
2019-04-13T05:23:14.781Z,8.77
2019-04-13T05:25:42.242Z,8.80
2019-04-13T05:28:09.735Z,9.60
2019-04-13T05:30:38.191Z,7.13
2019-04-13T05:33:05.799Z,8.17
2019-04-13T05:35:33.334Z,10.27
2019-04-13T05:38:01.800Z,8.40
2019-04-13T05:40:29.480Z,6.67
2019-04-13T05:42:58.084Z,7.33
2019-04-13T05:45:26.538Z,8.45
2019-04-13T05:47:54.012Z,8.37
2019-04-13T05:50:21.670Z,6.73
2019-04-13T05:52:49.327Z,7.60
2019-04-13T05:55:16.888Z,7.30
2019-04-13T05:57:44.553Z,6.17
2019-04-13T06:00:12.282Z,6.50
2019-04-13T06:02:39.776Z,7.40
2019-04-13T06:05:07.697Z,7.17
2019-04-13T06:07:34.921Z,7.33
2019-04-13T06:10:04.335Z,7.33
2019-04-13T06:12:31.827Z,7.67
2019-04-13T06:14:59.625Z,6.77
2019-04-13T06:17:28.792Z,9.00
2019-04-13T06:19:55.505Z,10.20
2019-04-13T06:22:23.265Z,6.57
2019-04-13T06:24:52.096Z,6.93
2019-04-13T06:27:19.209Z,8.37
2019-04-13T06:29:46.889Z,7.03
2019-04-13T06:32:14.417Z,7.27
2019-04-13T06:34:42.819Z,5.97
2019-04-13T06:37:12.307Z,7.23
2019-04-13T06:39:38.567Z,9.87
2019-04-13T06:42:06.306Z,7.80
2019-04-13T06:44:36.259Z,7.30
2019-04-13T06:47:01.281Z,6.60
2019-04-13T06:49:28.764Z,6.07
2019-04-13T06:51:57.211Z,6.30
2019-04-13T06:54:24.688Z,6.40
2019-04-13T06:56:52.175Z,6.80
2019-04-13T06:59:19.774Z,7.77
2019-04-13T07:01:47.252Z,6.50
2019-04-13T07:04:14.730Z,11.13
2019-04-13T07:06:48.103Z,8.77
2019-04-13T07:09:16.254Z,7.53
2019-04-13T07:11:48.437Z,7.97
2019-04-13T07:14:15.855Z,8.83
2019-04-13T07:16:54.985Z,8.37
2019-04-13T07:19:23.225Z,7.27
2019-04-13T07:21:51.595Z,6.53
2019-04-13T07:24:18.835Z,6.17
2019-04-13T07:26:46.064Z,6.00
2019-04-13T07:29:14.410Z,9.43
2019-04-13T07:31:41.886Z,6.60
2019-04-13T07:34:10.128Z,7.87
2019-04-13T07:36:41.435Z,6.20
2019-04-13T07:39:05.226Z,5.33
2019-04-13T07:41:33.762Z,6.40
2019-04-13T07:44:01.433Z,6.20
2019-04-13T07:49:30.010Z,8.77
2019-04-13T07:52:14.631Z,8.67
2019-04-13T07:54:45.096Z,6.63
2019-04-13T07:57:10.214Z,5.67
2019-04-13T07:59:38.898Z,7.63
2019-04-13T08:02:06.583Z,7.60
2019-04-13T08:04:34.182Z,5.43
2019-04-13T08:07:06.155Z,7.40
2019-04-13T08:09:29.768Z,9.07
2019-04-13T08:11:57.247Z,7.20
2019-04-13T08:14:26.589Z,5.77
2019-04-13T08:16:54.057Z,9.30
2019-04-13T08:19:21.976Z,7.63
2019-04-13T08:21:49.549Z,7.23
2019-04-13T08:24:17.793Z,5.17
2019-04-13T08:26:46.478Z,6.23
2019-04-13T08:29:13.126Z,4.97
2019-04-13T08:31:40.617Z,4.87
2019-04-13T08:34:08.867Z,5.17
2019-04-13T08:36:36.340Z,5.63
2019-04-13T08:39:03.850Z,4.60
2019-04-13T08:41:32.247Z,5.07
2019-04-13T08:43:59.766Z,4.67
2019-04-13T08:46:28.241Z,4.67
2019-04-13T08:48:54.806Z,5.13
2019-04-13T08:51:23.706Z,5.87
2019-04-13T08:53:52.174Z,5.20
2019-04-13T08:56:19.639Z,4.40
2019-04-13T08:58:47.249Z,4.30
2019-04-13T09:01:15.895Z,4.57
2019-04-13T09:03:42.276Z,5.20
2019-04-13T09:06:10.185Z,4.50
2019-04-13T09:08:37.955Z,3.70
2019-04-13T09:11:06.433Z,4.27
2019-04-13T09:13:34.515Z,3.40
2019-04-13T09:16:02.216Z,2.73
2019-04-13T09:18:31.462Z,4.00
2019-04-13T09:21:07.394Z,3.80
2019-04-13T09:23:34.433Z,3.60
2019-04-13T09:26:00.720Z,4.53
2019-04-13T09:28:28.913Z,3.27
2019-04-13T09:30:56.377Z,3.67
2019-04-13T09:33:24.658Z,3.00
2019-04-13T09:35:56.265Z,3.20
2019-04-13T09:38:21.206Z,3.83
2019-04-13T09:40:48.788Z,4.60
2019-04-13T09:43:16.255Z,3.83
2019-04-13T09:45:44.508Z,3.83
2019-04-13T09:48:16.138Z,4.50
2019-04-13T09:50:40.573Z,4.23
2019-04-13T09:53:09.562Z,3.10
2019-04-13T09:55:37.153Z,2.87
2019-04-13T09:58:05.401Z,4.60
2019-04-13T10:00:33.070Z,3.13
2019-04-13T10:03:01.128Z,4.33
2019-04-13T10:05:29.388Z,4.77
2019-04-13T10:07:55.866Z,2.77
2019-04-13T10:10:23.537Z,4.03
2019-04-13T10:12:54.026Z,3.23
2019-04-13T10:18:25.829Z,3.83
2019-04-13T10:20:50.645Z,2.90
2019-04-13T10:23:18.889Z,4.10
2019-04-13T10:25:46.474Z,3.63
2019-04-13T10:28:16.757Z,4.80
2019-04-13T10:30:42.363Z,4.37
2019-04-13T10:33:10.058Z,3.07
2019-04-13T10:35:37.641Z,3.03
2019-04-13T10:38:05.117Z,2.80
2019-04-13T10:40:32.802Z,5.83
2019-04-13T10:43:01.060Z,2.43
2019-04-13T10:45:34.610Z,3.70
2019-04-13T10:48:04.889Z,4.40
2019-04-13T10:50:34.198Z,5.47
2019-04-13T10:53:01.544Z,3.43
2019-04-13T10:55:29.205Z,2.77
2019-04-13T10:57:57.401Z,2.87
2019-04-13T11:00:24.922Z,2.63
2019-04-13T11:02:52.414Z,3.23
2019-04-13T11:05:19.980Z,3.20
2019-04-13T11:07:47.449Z,3.00
2019-04-13T11:10:15.900Z,3.10
2019-04-13T11:12:43.373Z,3.33
2019-04-13T11:15:10.862Z,3.57
2019-04-13T11:17:38.357Z,3.70
2019-04-13T11:20:06.066Z,3.83
2019-04-13T11:22:33.995Z,2.83
2019-04-13T11:25:01.615Z,3.60
2019-04-13T11:27:29.088Z,3.67
2019-04-13T11:29:56.748Z,3.33
2019-04-13T11:32:24.319Z,3.70
2019-04-13T11:34:51.867Z,3.00
2019-04-13T11:37:19.347Z,3.07
2019-04-13T11:39:48.168Z,2.63
2019-04-13T11:42:21.399Z,3.83
2019-04-13T11:44:50.739Z,3.87
2019-04-13T11:50:13.382Z,3.60
2019-04-13T11:52:41.043Z,3.70
2019-04-13T11:55:08.606Z,3.70
2019-04-13T11:57:36.201Z,3.13
2019-04-13T12:00:05.296Z,3.17
2019-04-13T12:02:34.033Z,3.73
2019-04-13T12:07:56.422Z,4.62
2019-04-13T12:10:40.872Z,3.63
2019-04-13T12:13:10.775Z,3.30
2019-04-13T12:18:37.318Z,5.65
2019-04-13T12:21:19.676Z,3.70
2019-04-13T12:23:47.147Z,4.20
2019-04-13T12:26:15.092Z,3.70
2019-04-13T12:28:43.344Z,3.57
2019-04-13T12:31:10.816Z,3.50
2019-04-13T12:33:38.287Z,3.33
2019-04-13T12:36:06.522Z,4.33
2019-04-13T12:38:34.008Z,3.87
2019-04-13T12:41:02.682Z,2.73
2019-04-13T12:43:30.168Z,3.67
2019-04-13T12:45:58.633Z,2.47
2019-04-13T12:48:26.129Z,3.77
2019-04-13T12:50:54.521Z,4.87
2019-04-13T12:53:22.002Z,2.60
2019-04-13T12:55:49.470Z,2.80
2019-04-13T12:58:17.105Z,4.87
2019-04-13T13:00:45.354Z,2.23
2019-04-13T13:03:12.828Z,2.67
2019-04-13T13:05:52.100Z,1.90
2019-04-13T13:08:20.217Z,3.40
2019-04-13T13:10:47.695Z,2.10
2019-04-13T13:13:15.166Z,2.93
2019-04-13T13:15:43.655Z,2.28
2019-04-13T13:18:11.133Z,2.00
2019-04-13T13:20:39.577Z,2.80
2019-04-13T13:23:07.067Z,1.93
2019-04-13T13:25:35.732Z,2.90
2019-04-13T13:28:04.019Z,2.27
2019-04-13T13:30:31.498Z,2.43
2019-04-13T13:32:59.874Z,2.27
2019-04-13T13:35:32.482Z,2.10
2019-04-13T13:37:55.622Z,3.73
2019-04-13T13:40:30.978Z,1.93
2019-04-13T13:42:52.848Z,2.43
2019-04-13T13:45:22.786Z,2.50
2019-04-13T13:47:49.326Z,3.00
2019-04-13T13:50:16.996Z,2.53
2019-04-13T13:52:44.736Z,4.37
2019-04-13T13:55:12.214Z,2.13
2019-04-13T13:57:39.712Z,2.67
2019-04-13T14:00:07.202Z,2.80
2019-04-13T14:02:34.681Z,2.27
2019-04-13T14:05:02.187Z,2.27
2019-04-13T14:07:32.890Z,2.60
2019-04-13T14:10:04.271Z,2.60
2019-04-13T14:12:31.930Z,3.00
2019-04-13T14:14:59.877Z,3.97
2019-04-13T14:17:27.462Z,2.03
2019-04-13T14:19:54.966Z,2.53
2019-04-13T14:22:22.751Z,2.17
2019-04-13T14:24:50.431Z,5.77
2019-04-13T14:27:17.742Z,2.70
2019-04-13T14:29:46.007Z,3.00
2019-04-13T14:32:13.670Z,3.87
2019-04-13T14:34:41.465Z,2.93
2019-04-13T14:37:09.721Z,3.20
2019-04-13T14:39:37.213Z,3.97
2019-04-13T14:42:05.657Z,4.43
2019-04-13T14:44:33.241Z,3.77
2019-04-13T14:47:03.386Z,3.53
2019-04-13T14:49:29.586Z,2.67
2019-04-13T14:51:57.139Z,2.53
2019-04-13T14:54:24.909Z,3.03
2019-04-13T14:56:52.429Z,3.90
2019-04-13T14:59:20.142Z,2.47
2019-04-13T15:01:47.729Z,2.40
2019-04-13T15:04:15.970Z,4.17
2019-04-13T15:06:43.563Z,3.50
2019-04-13T15:09:11.231Z,2.53
2019-04-13T15:11:38.711Z,2.50
2019-04-13T15:14:06.984Z,2.63
2019-04-13T15:16:35.717Z,2.57
2019-04-13T15:19:32.501Z,2.27
2019-04-13T15:21:50.413Z,2.63
2019-04-13T15:24:21.011Z,4.47
2019-04-13T15:26:46.162Z,2.53
2019-04-13T15:29:16.310Z,2.90
2019-04-13T15:31:41.187Z,4.87
2019-04-13T15:34:09.448Z,3.70
2019-04-13T15:36:37.598Z,2.83
2019-04-13T15:39:07.466Z,2.43
2019-04-13T15:41:42.249Z,2.93
2019-04-13T15:44:04.888Z,2.50
2019-04-13T15:46:30.475Z,2.40
2019-04-13T15:48:58.246Z,2.70
2019-04-13T15:51:25.313Z,3.27
2019-04-13T15:53:53.840Z,3.07
2019-04-13T15:56:21.683Z,3.53
2019-04-13T15:58:49.523Z,2.73
2019-04-13T16:01:17.399Z,3.23
2019-04-13T16:03:44.702Z,2.47
2019-04-13T16:06:12.460Z,3.97
2019-04-13T16:08:45.323Z,3.90
2019-04-13T16:11:14.501Z,3.50
2019-04-13T16:13:43.269Z,3.10
2019-04-13T16:16:09.859Z,3.47
2019-04-13T16:18:39.313Z,3.17
2019-04-13T16:21:06.482Z,2.47
2019-04-13T16:23:33.335Z,2.47
2019-04-13T16:26:01.921Z,3.17
2019-04-13T16:28:39.886Z,3.43
2019-04-13T16:31:13.826Z,2.40
2019-04-13T16:33:49.204Z,3.43
2019-04-13T16:36:17.896Z,2.90
2019-04-13T16:38:54.768Z,2.07
2019-04-13T16:41:13.017Z,3.10
2019-04-13T16:43:45.185Z,2.23
2019-04-13T16:46:13.609Z,2.23
2019-04-13T16:48:42.620Z,3.10
2019-04-13T16:51:14.046Z,2.10
2019-04-13T16:53:47.316Z,3.03
2019-04-13T16:56:20.825Z,2.67
2019-04-13T16:58:53.141Z,2.83
2019-04-13T17:01:37.559Z,2.20
2019-04-13T17:04:23.597Z,3.17
2019-04-13T17:06:50.794Z,2.87
2019-04-13T17:09:19.054Z,2.53
2019-04-13T17:11:48.391Z,2.53
2019-04-13T17:14:16.150Z,3.13
2019-04-13T17:16:46.287Z,2.77
2019-04-13T17:19:15.675Z,2.43
2019-04-13T17:21:45.771Z,3.03
2019-04-13T17:27:07.235Z,3.45
2019-04-13T17:29:50.204Z,4.10
2019-04-13T17:32:23.178Z,2.57
2019-04-13T17:37:34.066Z,3.12
2019-04-13T17:40:03.359Z,4.10
2019-04-13T17:42:42.619Z,4.10
2019-04-13T17:45:07.457Z,3.00
2019-04-13T17:47:40.907Z,3.30
2019-04-13T17:50:14.310Z,2.73
2019-04-13T17:52:48.605Z,3.20
2019-04-13T17:55:25.512Z,3.13
2019-04-13T17:58:08.110Z,3.87
2019-04-13T18:00:56.343Z,3.30
2019-04-13T18:03:30.778Z,3.67
2019-04-13T18:05:58.701Z,3.40
2019-04-13T18:08:39.898Z,2.60
2019-04-13T18:11:05.813Z,4.83
2019-04-13T18:13:45.281Z,4.63
2019-04-13T18:16:11.468Z,3.33
2019-04-13T18:18:39.658Z,3.97
2019-04-13T18:21:08.194Z,2.73
2019-04-13T18:23:36.656Z,2.73
2019-04-13T18:26:04.442Z,2.60
2019-04-13T18:28:31.859Z,3.13
2019-04-13T18:31:00.050Z,2.97
2019-04-13T18:33:28.198Z,3.07
2019-04-13T18:35:54.667Z,2.77
2019-04-13T18:38:23.234Z,2.97
2019-04-13T18:40:51.696Z,3.93
2019-04-13T18:43:23.096Z,3.53
2019-04-13T18:45:47.347Z,2.53
2019-04-13T18:48:16.412Z,2.70
2019-04-13T18:50:43.742Z,2.30
2019-04-13T18:53:11.229Z,2.67
2019-04-13T18:55:40.707Z,2.20
2019-04-13T18:58:10.741Z,3.37
2019-04-13T19:00:36.438Z,2.73
2019-04-13T19:03:04.953Z,3.70
2019-04-13T19:05:31.584Z,2.93
2019-04-13T19:07:59.152Z,4.70
2019-04-13T19:10:26.650Z,2.27
2019-04-13T19:13:03.822Z,2.50
2019-04-13T19:15:23.185Z,2.97
2019-04-13T19:17:50.664Z,3.00
2019-04-13T19:20:19.002Z,2.73
2019-04-13T19:22:47.594Z,3.23
2019-04-13T19:25:15.075Z,2.47
2019-04-13T19:27:42.554Z,2.83
2019-04-13T19:30:11.010Z,2.90
2019-04-13T19:32:38.489Z,3.80
2019-04-13T19:35:06.762Z,3.13
2019-04-13T19:37:35.014Z,4.37
2019-04-13T19:40:02.503Z,2.47
2019-04-13T19:42:30.050Z,4.43
2019-04-13T19:44:57.521Z,2.37
2019-04-13T19:47:25.025Z,3.73
2019-04-13T19:49:52.502Z,2.70
2019-04-13T19:52:25.733Z,3.53
2019-04-13T19:54:53.212Z,4.17
2019-04-13T19:57:21.456Z,4.07
2019-04-13T19:59:49.026Z,3.77
2019-04-13T20:02:16.510Z,3.40
2019-04-13T20:04:45.706Z,4.27
2019-04-13T20:07:13.267Z,3.60
2019-04-13T20:09:40.826Z,4.00
2019-04-13T20:12:08.509Z,3.60
2019-04-13T20:14:37.232Z,3.53
2019-04-13T20:17:04.524Z,3.67
2019-04-13T20:19:31.983Z,3.97
2019-04-13T20:21:59.889Z,4.63
2019-04-13T20:24:27.350Z,3.90
2019-04-13T20:26:55.868Z,4.57
2019-04-13T20:29:25.295Z,3.97
2019-04-13T20:31:52.896Z,3.20
2019-04-13T20:34:20.579Z,5.00
2019-04-13T20:36:48.094Z,4.87
2019-04-13T20:39:15.813Z,4.20
2019-04-13T20:41:52.569Z,4.53
2019-04-13T20:44:14.108Z,4.43
2019-04-13T20:46:40.679Z,4.17
2019-04-13T20:49:08.558Z,4.03
2019-04-13T20:51:34.839Z,3.77
2019-04-13T20:54:02.396Z,3.30
2019-04-13T20:56:31.750Z,3.60
2019-04-13T20:58:59.615Z,3.43
2019-04-13T21:01:26.018Z,3.10
2019-04-13T21:03:53.567Z,3.77
2019-04-13T21:06:21.852Z,3.63
2019-04-13T21:08:51.255Z,3.87
2019-04-13T21:11:16.780Z,3.87
2019-04-13T21:13:57.423Z,4.23
2019-04-13T21:16:12.804Z,4.00
2019-04-13T21:18:41.155Z,5.70
2019-04-13T21:21:10.563Z,4.47
2019-04-13T21:23:38.526Z,4.13
2019-04-13T21:26:06.268Z,4.37
2019-04-13T21:28:32.810Z,4.57
2019-04-13T21:31:00.283Z,4.30
2019-04-13T21:33:27.947Z,4.37
2019-04-13T21:35:55.769Z,3.57
2019-04-13T21:38:23.506Z,4.17
2019-04-13T21:40:52.141Z,4.07
2019-04-13T21:43:19.929Z,5.37
2019-04-13T21:45:49.169Z,5.37
2019-04-13T21:48:17.277Z,5.17
2019-04-13T21:50:44.358Z,4.87
2019-04-13T21:53:30.919Z,4.23
2019-04-13T21:55:59.200Z,5.33
2019-04-13T21:58:27.223Z,4.77
2019-04-13T22:01:08.587Z,4.63
2019-04-13T22:03:36.255Z,6.47
2019-04-13T22:06:04.405Z,3.80
2019-04-13T22:08:31.873Z,5.87
2019-04-13T22:10:59.526Z,4.53
2019-04-13T22:13:27.621Z,4.57
2019-04-13T22:15:55.170Z,4.83
2019-04-13T22:18:23.511Z,4.07
2019-04-13T22:20:50.964Z,4.70
2019-04-13T22:23:17.703Z,4.63
2019-04-13T22:25:45.255Z,5.43
2019-04-13T22:28:15.140Z,4.83
2019-04-13T22:33:44.394Z,7.12
2019-04-13T22:36:18.101Z,4.90
2019-04-13T22:38:45.717Z,6.93
2019-04-13T22:41:13.868Z,4.87
2019-04-13T22:43:41.382Z,5.20
2019-04-13T22:46:08.994Z,6.53
2019-04-13T22:48:42.061Z,5.33
2019-04-13T22:51:23.317Z,5.00
2019-04-13T22:53:53.445Z,5.87
2019-04-13T22:56:31.061Z,6.47
2019-04-13T22:58:58.582Z,7.67
2019-04-13T23:01:26.640Z,6.60
2019-04-13T23:03:53.611Z,6.63
2019-04-13T23:06:21.128Z,5.83
2019-04-13T23:08:48.902Z,5.43
2019-04-13T23:11:17.236Z,7.50
2019-04-13T23:13:44.999Z,5.83
2019-04-13T23:16:12.802Z,7.20
2019-04-13T23:18:40.711Z,5.47
2019-04-13T23:21:09.313Z,8.13
2019-04-13T23:23:36.201Z,7.83
2019-04-13T23:26:03.752Z,6.50
2019-04-13T23:28:31.436Z,8.07
2019-04-13T23:30:59.581Z,6.77
2019-04-13T23:33:28.025Z,7.60
2019-04-13T23:35:54.406Z,6.80
2019-04-13T23:38:22.420Z,5.67
2019-04-13T23:40:50.595Z,7.27
2019-04-13T23:43:17.315Z,6.80
2019-04-13T23:45:45.277Z,7.20
2019-04-13T23:48:13.303Z,6.87
2019-04-13T23:50:40.119Z,7.07
2019-04-13T23:53:09.732Z,7.60
2019-04-13T23:55:37.921Z,7.80
2019-04-13T23:58:04.671Z,8.00
